Time;durP1;ratioP1;P1;durP2;ratioP2;P2;SDS_P1;SDS_P2;PMS_P1;PMS_P2;Temp;Humidity;BMP_temperature;BMP_pressure;BME280_temperature;BME280_humidity;BME280_pressure;Samples;Min_cycle;Max_cycle;Signal;HPM_P1;HPM_P2
2022/05/04 00:00:41;;;;;;;;;;;;;;;14.17;66.96;97912.81;4996703;28;19984;-59
2022/05/04 00:03:09;;;;;;;;;;;;;;;14.16;66.89;97913.91;4984708;28;20013;-59
2022/05/04 00:05:37;;;;;;;;;;;;;;;14.11;66.38;97905.94;4988310;28;19929;-59
2022/05/04 00:08:06;;;;;;;;;;;;;;;14.01;66.73;97896.22;4983369;28;20382;-59
2022/05/04 00:10:37;;;;;;;;;;;;;;;13.73;67.22;97895.13;4986689;28;19999;-58
2022/05/04 00:13:05;;;;;;;;;;;;;;;13.63;67.86;97897.16;4988919;28;20365;-60
2022/05/04 00:15:33;;;;;;;;;;;;;;;13.55;68.05;97891.72;4987523;28;19930;-59
2022/05/04 00:18:06;;;;;;;;;;;;;;;13.53;67.89;97894.81;4988016;28;19926;-59
2022/05/04 00:20:34;;;;;;;;;;;;;;;13.50;68.59;97902.84;4986171;28;19957;-59
2022/05/04 00:23:02;;;;;;;;;;;;;;;13.38;68.13;97900.03;4989388;28;19926;-58
2022/05/04 00:25:31;;;;;;;;;;;;;;;13.22;68.55;97900.59;4994820;28;19930;-59
2022/05/04 00:28:00;;;;;;;;;;;;;;;13.06;69.18;97894.06;4985035;28;19926;-60
2022/05/04 00:30:28;;;;;;;;;;;;;;;13.31;69.06;97889.63;4984742;28;20017;-59
2022/05/04 00:32:56;;;;;;;;;;;;;;;13.35;68.73;97896.03;4979982;28;19926;-59
2022/05/04 00:35:24;;;;;;;;;;;;;;;13.46;68.21;97893.72;4988874;28;19925;-59
2022/05/04 00:37:52;;;;;;;;;;;;;;;13.51;68.07;97898.97;4985343;28;19972;-57
2022/05/04 00:40:20;;;;;;;;;;;;;;;13.48;68.26;97897.72;4988722;28;20437;-59
2022/05/04 00:42:49;;;;;;;;;;;;;;;13.58;67.43;97896.50;4972989;28;19925;-59
2022/05/04 00:45:17;;;;;;;;;;;;;;;13.41;67.72;97894.69;4983751;28;19956;-59
2022/05/04 00:47:45;;;;;;;;;;;;;;;13.46;67.80;97897.25;4981652;28;20417;-59
2022/05/04 00:50:37;;;;;;;;;;;;;;;13.43;68.00;97899.84;4979131;28;19930;-59
2022/05/04 00:53:06;;;;;;;;;;;;;;;13.33;67.47;97898.28;4979540;28;19969;-58
2022/05/04 00:55:34;;;;;;;;;;;;;;;13.23;67.83;97906.84;4977898;28;20397;-59
2022/05/04 01:00:51;;;;;;;;;;;;;;;12.62;70.12;97917.13;4998663;28;19925;-60
2022/05/04 01:03:44;;;;;;;;;;;;;;;12.48;70.75;97920.06;4988022;28;20029;-60
2022/05/04 01:06:13;;;;;;;;;;;;;;;12.48;70.38;97912.69;4990733;28;19925;-61
2022/05/04 01:09:06;;;;;;;;;;;;;;;12.47;69.96;97915.72;4987364;28;19929;-59
2022/05/04 01:11:34;;;;;;;;;;;;;;;12.67;69.16;97919.69;4990650;28;19933;-60
2022/05/04 01:14:04;;;;;;;;;;;;;;;12.48;69.07;97920.06;4985751;28;20386;-56
2022/05/04 01:16:33;;;;;;;;;;;;;;;12.57;69.03;97915.41;4986360;28;20370;-58
2022/05/04 01:19:01;;;;;;;;;;;;;;;12.65;68.93;97913.75;4993330;28;19930;-57
2022/05/04 01:21:30;;;;;;;;;;;;;;;12.86;68.04;97914.66;4988781;28;20309;-58
2022/05/04 01:23:59;;;;;;;;;;;;;;;12.78;68.38;97910.03;4991325;28;19929;-59
2022/05/04 01:26:27;;;;;;;;;;;;;;;12.66;68.57;97912.63;4986905;28;19925;-58
2022/05/04 01:28:54;;;;;;;;;;;;;;;12.70;68.95;97908.94;4979240;28;19926;-58
2022/05/04 01:31:25;;;;;;;;;;;;;;;12.71;68.46;97905.06;4987342;28;20020;-54
2022/05/04 01:33:53;;;;;;;;;;;;;;;12.65;68.48;97911.03;4982914;28;20458;-58
2022/05/04 01:36:21;;;;;;;;;;;;;;;12.61;68.59;97904.63;4988136;28;19965;-58
2022/05/04 01:38:50;;;;;;;;;;;;;;;12.70;68.45;97913.59;4987146;28;19969;-57
2022/05/04 01:44:05;;;;;;;;;;;;;;;12.70;67.96;97908.13;4988631;28;19948;-58
2022/05/04 01:46:34;;;;;;;;;;;;;;;12.70;67.76;97914.38;4983474;28;19926;-55
2022/05/04 01:49:05;;;;;;;;;;;;;;;12.65;67.97;97913.75;4976943;28;19933;-58
2022/05/04 01:51:34;;;;;;;;;;;;;;;12.52;68.09;97916.34;4983310;28;19930;-58
2022/05/04 01:54:02;;;;;;;;;;;;;;;12.53;67.96;97911.72;4978982;28;19930;-57
2022/05/04 01:56:31;;;;;;;;;;;;;;;12.80;67.39;97914.03;4982883;28;19930;-58
2022/05/04 01:58:59;;;;;;;;;;;;;;;12.74;67.42;97917.28;4985377;28;19930;-59
2022/05/04 02:01:27;;;;;;;;;;;;;;;12.68;67.71;97922.09;4985024;28;19926;-59
2022/05/04 02:03:55;;;;;;;;;;;;;;;12.56;68.04;97916.50;4982909;28;19949;-58
2022/05/04 02:06:26;;;;;;;;;;;;;;;12.53;68.39;97919.88;4980257;28;19926;-55
2022/05/04 02:08:54;;;;;;;;;;;;;;;12.48;68.37;97912.69;4983174;28;19933;-59
2022/05/04 02:11:22;;;;;;;;;;;;;;;12.48;68.03;97912.69;4979168;28;19937;-58
2022/05/04 02:16:44;;;;;;;;;;;;;;;12.64;67.70;97920.34;4983535;28;19977;-58
2022/05/04 02:19:19;;;;;;;;;;;;;;;12.53;67.77;97914.44;4993380;28;20314;-59
2022/05/04 02:21:48;;;;;;;;;;;;;;;12.44;67.92;97916.38;4985509;28;19969;-58
2022/05/04 02:24:16;;;;;;;;;;;;;;;12.48;68.17;97917.31;4988493;28;20028;-58
2022/05/04 02:26:44;;;;;;;;;;;;;;;12.27;68.10;97914.47;4988625;28;19926;-58
2022/05/04 02:29:13;;;;;;;;;;;;;;;12.26;68.35;97908.22;4992413;28;19929;-57
2022/05/04 02:31:41;;;;;;;;;;;;;;;12.22;68.58;97914.63;4990467;28;19972;-58
2022/05/04 02:34:09;;;;;;;;;;;;;;;12.06;68.76;97917.03;4985232;28;20277;-58
2022/05/04 02:39:22;;;;;;;;;;;;;;;12.45;67.68;97913.31;4989010;28;19984;-58
2022/05/04 02:41:52;;;;;;;;;;;;;;;12.37;67.85;97911.41;4989730;28;20024;-58
2022/05/04 02:44:21;;;;;;;;;;;;;;;12.32;68.14;97911.56;4981881;28;20278;-58
2022/05/04 02:46:49;;;;;;;;;;;;;;;12.40;67.34;97913.47;4984462;28;20390;-58
2022/05/04 02:49:17;;;;;;;;;;;;;;;12.33;67.43;97913.16;4987134;28;20289;-57
2022/05/04 02:51:49;;;;;;;;;;;;;;;12.46;67.15;97914.91;4975863;28;19926;-58
2022/05/04 02:54:17;;;;;;;;;;;;;;;12.47;66.94;97910.28;4977918;28;20083;-56
2022/05/04 02:56:49;;;;;;;;;;;;;;;12.25;67.60;97914.78;4980430;28;19926;-57
2022/05/04 02:59:17;;;;;;;;;;;;;;;12.29;67.84;97915.72;4979717;28;20037;-58
2022/05/04 03:05:00;;;;;;;;;;;;;;;12.30;67.70;97914.63;4979808;28;19934;-58
2022/05/04 03:07:28;;;;;;;;;;;;;;;12.11;68.05;97908.72;4985918;28;19985;-58
2022/05/04 03:09:56;;;;;;;;;;;;;;;11.65;69.40;97915.53;4986293;28;19936;-57
2022/05/04 03:12:25;;;;;;;;;;;;;;;11.72;69.68;97913.16;4981302;28;20437;-58
2022/05/04 03:14:53;;;;;;;;;;;;;;;11.86;68.96;97912.22;4980254;28;19930;-53
2022/05/04 03:17:22;;;;;;;;;;;;;;;12.08;68.26;97912.06;4985542;28;19929;-58
2022/05/04 03:19:55;;;;;;;;;;;;;;;11.89;68.51;97917.03;4979807;28;20293;-56
2022/05/04 03:22:24;;;;;;;;;;;;;;;11.89;68.71;97911.59;4980739;28;19925;-57
2022/05/04 03:24:52;;;;;;;;;;;;;;;11.78;68.46;97913.78;4982868;28;19930;-50
2022/05/04 03:27:20;;;;;;;;;;;;;;;11.79;68.57;97915.41;4984145;28;19930;-57
2022/05/04 03:29:48;;;;;;;;;;;;;;;11.70;68.18;97903.69;4983225;28;19926;-57
2022/05/04 03:32:15;;;;;;;;;;;;;;;11.63;68.30;97900.66;4984259;28;19925;-58
2022/05/04 03:34:45;;;;;;;;;;;;;;;11.61;68.65;97895.53;4985167;28;19926;-58
2022/05/04 03:37:13;;;;;;;;;;;;;;;11.51;68.23;97902.06;4983507;28;20369;-57
2022/05/04 03:39:41;;;;;;;;;;;;;;;11.43;68.92;97894.69;4981317;28;20337;-58
2022/05/04 03:42:12;;;;;;;;;;;;;;;11.64;68.52;97894.09;4977916;28;19972;-58
2022/05/04 03:44:39;;;;;;;;;;;;;;;11.70;67.93;97895.53;4981872;28;19933;-61
2022/05/04 03:47:07;;;;;;;;;;;;;;;11.66;67.80;97905.44;4982443;28;19956;-56
2022/05/04 03:49:35;;;;;;;;;;;;;;;11.75;67.65;97898.88;4985596;28;19942;-60
2022/05/04 03:52:05;;;;;;;;;;;;;;;11.63;67.53;97892.50;4985228;28;20297;-60
2022/05/04 03:54:35;;;;;;;;;;;;;;;11.68;67.24;97905.94;4975994;28;20413;-59
2022/05/04 03:57:02;;;;;;;;;;;;;;;11.65;66.94;97901.91;4977856;28;19963;-59
2022/05/04 03:59:31;;;;;;;;;;;;;;;11.41;68.04;97907.81;4992430;28;19972;-61
2022/05/04 04:02:24;;;;;;;;;;;;;;;11.32;67.85;97901.53;4993664;28;20342;-59
2022/05/04 04:04:55;;;;;;;;;;;;;;;11.37;67.72;97904.13;4983805;28;20379;-57
2022/05/04 04:07:24;;;;;;;;;;;;;;;11.37;67.22;97901.41;4976546;28;19989;-54
2022/05/04 04:09:52;;;;;;;;;;;;;;;11.39;67.47;97907.31;4980809;28;20241;-60
2022/05/04 04:12:21;;;;;;;;;;;;;;;11.45;66.99;97911.50;4975631;28;19930;-60
2022/05/04 04:14:49;;;;;;;;;;;;;;;11.49;67.03;97911.66;4976803;28;20302;-58
2022/05/04 04:17:17;;;;;;;;;;;;;;;11.42;67.13;97908.59;4978127;28;20398;-60
2022/05/04 04:23:03;;;;;;;;;;;;;;;11.35;67.24;97916.44;4977075;28;20268;-56
2022/05/04 04:25:31;;;;;;;;;;;;;;;11.68;66.32;97919.53;4984397;28;19930;-57
2022/05/04 04:27:59;;;;;;;;;;;;;;;11.74;65.89;97919.06;4986168;28;19926;-60
2022/05/04 04:30:27;;;;;;;;;;;;;;;11.51;66.32;97918.41;4980241;28;19926;-60
2022/05/04 04:32:55;;;;;;;;;;;;;;;11.51;66.24;97926.56;4975394;28;19926;-58
2022/05/04 04:38:16;;;;;;;;;;;;;;;11.01;67.41;97926.06;4978223;28;19988;-58
2022/05/04 04:40:44;;;;;;;;;;;;;;;10.87;68.11;97923.47;4974841;28;19926;-58
2022/05/04 04:43:11;;;;;;;;;;;;;;;10.80;68.22;97933.94;4982278;28;19940;-58
2022/05/04 04:45:39;;;;;;;;;;;;;;;10.70;68.19;97931.50;4982008;28;19992;-59
2022/05/04 04:48:12;;;;;;;;;;;;;;;10.56;68.88;97930.81;4977714;28;19930;-59
2022/05/04 04:50:40;;;;;;;;;;;;;;;10.74;68.87;97927.84;4979972;28;19930;-58
2022/05/04 04:53:08;;;;;;;;;;;;;;;10.84;68.06;97926.78;4975617;28;20389;-58
2022/05/04 04:55:39;;;;;;;;;;;;;;;11.14;67.36;97924.38;4977358;28;20340;-59
2022/05/04 04:58:07;;;;;;;;;;;;;;;11.26;66.80;97932.72;4974410;28;20025;-59
2022/05/04 05:00:35;;;;;;;;;;;;;;;11.65;65.52;97933.78;4971129;28;20283;-59
2022/05/04 05:06:01;;;;;;;;;;;;;;;11.91;65.12;97934.63;4976764;28;19929;-59
2022/05/04 05:08:29;;;;;;;;;;;;;;;11.85;64.95;97933.19;4978381;28;19956;-59
2022/05/04 05:10:58;;;;;;;;;;;;;;;12.04;64.44;97949.25;4975306;28;19984;-60
2022/05/04 05:13:26;;;;;;;;;;;;;;;12.15;64.52;97941.56;4975456;28;19930;-59
2022/05/04 05:16:08;;;;;;;;;;;;;;;12.16;64.47;97943.16;4980720;28;20079;-59
2022/05/04 05:18:36;;;;;;;;;;;;;;;12.08;64.72;97942.00;4976048;28;19965;-59
2022/05/04 05:21:04;;;;;;;;;;;;;;;12.06;64.85;97938.81;4974803;28;20437;-59
2022/05/04 05:23:35;;;;;;;;;;;;;;;12.06;65.05;97939.63;4973884;28;19926;-59
2022/05/04 05:26:08;;;;;;;;;;;;;;;11.97;65.28;97930.63;4975951;28;20013;-57
2022/05/04 05:28:37;;;;;;;;;;;;;;;12.23;65.12;97935.28;4980124;28;20017;-59
2022/05/04 05:31:04;;;;;;;;;;;;;;;12.16;64.71;97926.81;4980155;28;19925;-59
2022/05/04 05:33:34;;;;;;;;;;;;;;;12.28;64.63;97933.19;4981726;28;19977;-59
2022/05/04 05:36:02;;;;;;;;;;;;;;;12.51;64.46;97927.56;4978879;28;19926;-59
2022/05/04 05:38:30;;;;;;;;;;;;;;;12.61;64.20;97929.94;4975086;28;20318;-58
2022/05/04 05:40:57;;;;;;;;;;;;;;;12.78;63.58;97937.28;4976927;28;19968;-58
2022/05/04 05:43:28;;;;;;;;;;;;;;;12.95;62.69;97936.47;4978939;28;19930;-59
2022/05/04 05:45:55;;;;;;;;;;;;;;;13.10;62.83;97939.44;4973818;28;19926;-59
2022/05/04 05:48:24;;;;;;;;;;;;;;;13.29;61.88;97944.53;4971059;28;20036;-59
2022/05/04 05:50:52;;;;;;;;;;;;;;;13.43;61.85;97941.56;4977317;28;19934;-57
2022/05/04 05:53:22;;;;;;;;;;;;;;;13.34;61.54;97943.53;4976456;28;20060;-57
2022/05/04 05:56:15;;;;;;;;;;;;;;;13.49;61.15;97945.72;4980892;28;19929;-58
2022/05/04 05:58:44;;;;;;;;;;;;;;;13.48;60.97;97938.66;4984617;28;20357;-59
2022/05/04 06:01:12;;;;;;;;;;;;;;;13.64;60.95;97944.34;4977286;28;19934;-59
2022/05/04 06:03:40;;;;;;;;;;;;;;;13.78;60.55;97942.16;4975545;28;19937;-56
2022/05/04 06:06:10;;;;;;;;;;;;;;;13.91;60.99;97945.00;4972826;28;19965;-57
2022/05/04 06:09:03;;;;;;;;;;;;;;;13.84;60.63;97945.50;4970247;28;20008;-59
2022/05/04 06:11:32;;;;;;;;;;;;;;;13.97;60.17;97947.19;4976272;28;19957;-59
2022/05/04 06:14:03;;;;;;;;;;;;;;;13.99;60.15;97946.84;4978922;28;19926;-58
2022/05/04 06:16:31;;;;;;;;;;;;;;;13.45;61.35;97950.22;4975391;28;19933;-58
2022/05/04 06:18:59;;;;;;;;;;;;;;;13.51;61.20;97946.16;4975092;28;20260;-58
2022/05/04 06:21:27;;;;;;;;;;;;;;;13.58;61.22;97943.75;4976815;28;19926;-57
2022/05/04 06:23:55;;;;;;;;;;;;;;;13.70;60.74;97945.75;4974023;28;19930;-57
2022/05/04 06:26:23;;;;;;;;;;;;;;;14.07;60.41;97944.06;4973072;28;20001;-57
2022/05/04 06:28:51;;;;;;;;;;;;;;;14.18;59.92;97949.13;4973482;28;20354;-58
2022/05/04 06:34:10;;;;;;;;;;;;;;;14.55;59.64;97948.19;4981959;28;20331;-56
2022/05/04 06:36:40;;;;;;;;;;;;;;;14.59;59.45;97949.09;4975502;28;19949;-56
2022/05/04 06:39:08;;;;;;;;;;;;;;;14.82;59.08;97948.72;4973720;28;19930;-56
2022/05/04 06:41:36;;;;;;;;;;;;;;;15.00;58.25;97954.78;4974413;28;19926;-56
2022/05/04 06:44:04;;;;;;;;;;;;;;;14.89;58.35;97954.44;4973972;28;19957;-56
2022/05/04 06:46:33;;;;;;;;;;;;;;;15.22;57.81;97961.78;4974525;28;20582;-57
2022/05/04 06:49:01;;;;;;;;;;;;;;;15.13;57.75;97957.22;4973718;28;19932;-55
2022/05/04 06:51:30;;;;;;;;;;;;;;;15.03;58.33;97960.41;4978871;28;19985;-56
2022/05/04 06:53:58;;;;;;;;;;;;;;;14.97;57.91;97961.75;4974950;28;20643;-57
2022/05/04 06:56:47;;;;;;;;;;;;;;;15.27;57.26;97956.09;4970337;28;19930;-57
2022/05/04 06:59:15;;;;;;;;;;;;;;;15.54;57.08;97958.16;4971907;28;19933;-57
2022/05/04 07:01:46;;;;;;;;;;;;;;;15.29;56.07;97954.63;4972928;28;20390;-57
2022/05/04 07:04:20;;;;;;;;;;;;;;;15.54;55.55;97957.34;4970679;28;20391;-57
2022/05/04 07:06:48;;;;;;;;;;;;;;;15.78;55.79;97954.63;4993422;28;19930;-57
2022/05/04 07:09:16;;;;;;;;;;;;;;;15.93;55.63;97950.41;4973380;28;19930;-57
2022/05/04 07:11:44;;;;;;;;;;;;;;;16.01;55.91;97941.25;4976678;28;20021;-57
2022/05/04 07:14:16;;;;;;;;;;;;;;;16.24;55.98;97955.22;4976698;28;19965;-57
2022/05/04 07:16:46;;;;;;;;;;;;;;;16.25;53.62;97943.13;4974692;28;20435;-57
2022/05/04 07:19:15;;;;;;;;;;;;;;;16.36;53.89;97946.19;4978379;28;19932;-56
2022/05/04 07:21:49;;;;;;;;;;;;;;;16.57;53.80;97949.53;4976905;28;20024;-57
2022/05/04 07:24:18;;;;;;;;;;;;;;;16.08;54.87;97951.59;4977329;28;19926;-57
2022/05/04 07:26:46;;;;;;;;;;;;;;;16.55;53.32;97953.75;4976107;28;19973;-57
2022/05/04 07:29:14;;;;;;;;;;;;;;;16.80;53.11;97946.25;4977090;28;20388;-58
2022/05/04 07:31:42;;;;;;;;;;;;;;;17.00;53.07;97945.22;4978732;28;20319;-58
2022/05/04 07:34:14;;;;;;;;;;;;;;;17.04;53.14;97946.06;4976044;28;19973;-57
2022/05/04 07:36:42;;;;;;;;;;;;;;;17.14;51.33;97940.06;4976808;28;19927;-57
2022/05/04 07:42:21;;;;;;;;;;;;;;;17.17;51.36;97944.88;4978219;28;20302;-58
2022/05/04 07:44:43;;;;;;;;;;;;;;;17.53;52.07;97943.00;4975372;28;20290;-58
2022/05/04 07:47:12;;;;;;;;;;;;;;;17.57;51.20;97949.34;4975941;28;19964;-58
2022/05/04 07:49:41;;;;;;;;;;;;;;;17.54;50.76;97944.59;4978042;28;19941;-57
2022/05/04 07:52:09;;;;;;;;;;;;;;;17.62;51.21;97951.81;4980715;28;19926;-58
2022/05/04 07:54:37;;;;;;;;;;;;;;;17.09;52.19;97945.81;4975846;28;20027;-58
2022/05/04 07:57:05;;;;;;;;;;;;;;;17.05;52.72;97947.69;4976218;28;19932;-58
2022/05/04 07:59:34;;;;;;;;;;;;;;;17.10;52.37;97952.94;4973773;28;19934;-57
2022/05/04 08:04:58;;;;;;;;;;;;;;;17.36;52.35;97948.84;4955864;28;20382;-57
2022/05/04 08:07:26;;;;;;;;;;;;;;;17.55;52.93;97957.97;4977518;28;20452;-58
2022/05/04 08:09:54;;;;;;;;;;;;;;;17.28;51.62;97954.16;4978021;28;20445;-57
2022/05/04 08:12:23;;;;;;;;;;;;;;;17.67;51.42;97953.50;4973518;28;19933;-57
2022/05/04 08:14:51;;;;;;;;;;;;;;;17.76;50.93;97956.91;4980255;28;20330;-57
2022/05/04 08:17:20;;;;;;;;;;;;;;;17.84;50.53;97963.34;4977430;28;20485;-57
2022/05/04 08:19:48;;;;;;;;;;;;;;;17.71;50.24;97955.19;4976310;28;20441;-58
2022/05/04 08:22:18;;;;;;;;;;;;;;;17.58;50.51;97966.63;4982899;28;19925;-58
2022/05/04 08:24:46;;;;;;;;;;;;;;;17.51;51.48;97961.75;4978704;28;19933;-58
2022/05/04 08:27:14;;;;;;;;;;;;;;;17.84;49.99;97961.41;4980317;28;20397;-58
2022/05/04 08:29:44;;;;;;;;;;;;;;;18.15;49.57;97963.28;4976975;28;19937;-58
2022/05/04 08:32:12;;;;;;;;;;;;;;;18.43;49.83;97967.78;4978978;28;20154;-57
2022/05/04 08:34:40;;;;;;;;;;;;;;;18.24;49.17;97969.38;4978812;28;20393;-58
2022/05/04 08:37:08;;;;;;;;;;;;;;;18.20;49.08;97959.44;4973632;28;20024;-58
2022/05/04 08:39:37;;;;;;;;;;;;;;;18.25;48.77;97959.97;4977834;28;20198;-57
2022/05/04 08:42:05;;;;;;;;;;;;;;;18.41;49.00;97953.59;4977179;28;19930;-57
2022/05/04 08:44:33;;;;;;;;;;;;;;;18.35;48.92;97955.06;4978080;28;19989;-57
2022/05/04 08:47:01;;;;;;;;;;;;;;;18.39;48.62;97955.94;4977676;28;19926;-57
2022/05/04 08:49:30;;;;;;;;;;;;;;;18.62;47.67;97956.78;4977074;28;20374;-57
2022/05/04 08:51:59;;;;;;;;;;;;;;;18.45;47.21;97951.72;4980299;28;20045;-57
2022/05/04 08:54:27;;;;;;;;;;;;;;;18.85;47.82;97956.84;4978250;28;19926;-57
2022/05/04 08:56:57;;;;;;;;;;;;;;;19.08;48.01;97954.16;4978165;28;20362;-57
2022/05/04 08:59:25;;;;;;;;;;;;;;;18.71;47.35;97949.13;4980176;28;19948;-57
2022/05/04 09:04:49;;;;;;;;;;;;;;;18.33;48.70;97941.66;4978913;28;19933;-58
2022/05/04 09:10:15;;;;;;;;;;;;;;;17.84;49.61;97947.66;4976345;28;19945;-57
2022/05/04 09:12:45;;;;;;;;;;;;;;;17.98;49.11;97941.69;4980987;28;20028;-58
2022/05/04 09:15:19;;;;;;;;;;;;;;;18.54;48.93;97944.84;4974134;28;19984;-57
2022/05/04 09:17:48;;;;;;;;;;;;;;;18.92;48.45;97940.47;4975021;28;20190;-58
2022/05/04 09:23:05;;;;;;;;;;;;;;;19.51;47.15;97939.13;4973723;28;19933;-57
2022/05/04 09:25:35;;;;;;;;;;;;;;;19.61;46.59;97937.75;4976367;28;20328;-57
2022/05/04 09:30:57;;;;;;;;;;;;;;;19.42;45.99;97937.78;4978126;28;19926;-57
2022/05/04 09:33:26;;;;;;;;;;;;;;;19.26;46.26;97937.91;4978482;28;19925;-58
2022/05/04 09:35:54;;;;;;;;;;;;;;;19.25;46.29;97937.13;4977224;28;19933;-57
2022/05/04 09:46:47;;;;;;;;;;;;;;;18.98;48.36;97933.50;4978407;28;19980;-57
2022/05/04 09:49:16;;;;;;;;;;;;;;;19.13;46.89;97929.06;4976502;28;19945;-57
2022/05/04 09:51:45;;;;;;;;;;;;;;;19.36;48.05;97929.84;4975669;28;20374;-56
2022/05/04 09:54:39;;;;;;;;;;;;;;;19.54;47.77;97932.06;4973617;28;19972;-57
2022/05/04 09:57:07;;;;;;;;;;;;;;;19.71;47.16;97919.75;4971933;28;19988;-57
2022/05/04 09:59:37;;;;;;;;;;;;;;;19.57;46.54;97918.34;4974759;28;19925;-58
2022/05/04 10:02:07;;;;;;;;;;;;;;;19.65;46.09;97916.53;4972619;28;20111;-57
2022/05/04 10:05:01;;;;;;;;;;;;;;;19.46;45.87;97909.13;4977202;28;20385;-57
2022/05/04 10:07:29;;;;;;;;;;;;;;;19.57;46.17;97901.81;4971769;28;19965;-58
2022/05/04 10:09:57;;;;;;;;;;;;;;;19.85;45.83;97901.47;4974360;28;20355;-57
2022/05/04 10:12:29;;;;;;;;;;;;;;;19.99;46.28;97895.38;4976771;28;19936;-58
2022/05/04 10:14:59;;;;;;;;;;;;;;;20.03;45.86;97892.66;4974761;28;19949;-58
2022/05/04 10:17:28;;;;;;;;;;;;;;;20.08;45.41;97895.06;4972724;28;20402;-57
2022/05/04 10:19:57;;;;;;;;;;;;;;;20.14;44.77;97894.38;4975641;28;19926;-57
2022/05/04 10:22:26;;;;;;;;;;;;;;;20.09;44.11;97891.16;4977893;28;19932;-57
2022/05/04 10:24:54;;;;;;;;;;;;;;;20.01;43.90;97883.94;4974615;28;20016;-57
2022/05/04 10:27:25;;;;;;;;;;;;;;;20.08;43.42;97879.34;4975520;28;19980;-57
2022/05/04 10:32:46;;;;;;;;;;;;;;;20.42;44.43;97871.06;4977299;28;19927;-57
2022/05/04 10:35:24;;;;;;;;;;;;;;;20.42;44.70;97865.53;4978720;28;20036;-57
2022/05/04 10:37:53;;;;;;;;;;;;;;;19.91;44.05;97859.78;4971162;28;20326;-57
2022/05/04 10:40:24;;;;;;;;;;;;;;;20.19;44.29;97851.88;4979471;28;19933;-58
2022/05/04 10:42:56;;;;;;;;;;;;;;;20.26;44.04;97851.97;4978108;28;19932;-58
2022/05/04 10:45:29;;;;;;;;;;;;;;;20.36;44.27;97848.53;4974895;28;20024;-58
2022/05/04 10:48:03;;;;;;;;;;;;;;;20.14;44.53;97847.50;4974483;28;19976;-58
2022/05/04 10:50:46;;;;;;;;;;;;;;;20.15;43.61;97845.53;4977179;28;20005;-57
2022/05/04 10:53:18;;;;;;;;;;;;;;;20.17;43.23;97839.63;4978978;28;19965;-57
2022/05/04 10:55:54;;;;;;;;;;;;;;;20.22;43.90;97834.56;4983999;28;21312;-58
2022/05/04 10:58:30;;;;;;;;;;;;;;;20.17;43.96;97828.59;4974474;28;19936;-58
2022/05/04 11:01:03;;;;;;;;;;;;;;;19.95;43.26;97820.06;4976274;28;20271;-58
2022/05/04 11:03:35;;;;;;;;;;;;;;;19.80;43.66;97819.09;4979984;28;19984;-57
2022/05/04 11:06:05;;;;;;;;;;;;;;;19.89;43.93;97818.81;4976362;28;19929;-57
2022/05/04 11:09:07;;;;;;;;;;;;;;;19.88;43.86;97814.47;4977930;28;20029;-58
2022/05/04 11:11:35;;;;;;;;;;;;;;;19.61;43.85;97811.78;4973449;28;19968;-58
2022/05/04 11:14:04;;;;;;;;;;;;;;;19.77;42.77;97814.34;4975851;28;20117;-57
2022/05/04 11:16:33;;;;;;;;;;;;;;;19.86;43.28;97805.75;4980589;28;19938;-58
2022/05/04 11:19:02;;;;;;;;;;;;;;;19.75;45.15;97805.63;4982386;28;20277;-57
2022/05/04 11:21:30;;;;;;;;;;;;;;;19.62;45.16;97813.34;4973023;28;20386;-56
2022/05/04 11:23:59;;;;;;;;;;;;;;;19.59;45.54;97810.53;4981658;28;20333;-57
2022/05/04 11:26:27;;;;;;;;;;;;;;;19.60;46.47;97815.69;4979550;28;19958;-57
2022/05/04 11:28:55;;;;;;;;;;;;;;;19.50;45.08;97815.53;4975546;28;19927;-57
2022/05/04 11:31:22;;;;;;;;;;;;;;;19.53;47.02;97831.28;4978903;28;19937;-54
2022/05/04 11:33:51;;;;;;;;;;;;;;;19.43;46.52;97826.41;4980064;28;20386;-57
2022/05/04 11:36:20;;;;;;;;;;;;;;;19.38;47.72;97824.78;4974277;28;19925;-57
2022/05/04 11:38:48;;;;;;;;;;;;;;;19.43;48.54;97832.72;4976702;28;20546;-57
2022/05/04 11:41:20;;;;;;;;;;;;;;;19.40;48.51;97832.69;4972097;28;20021;-56
2022/05/04 11:43:50;;;;;;;;;;;;;;;19.39;48.08;97837.41;4973832;28;19925;-57
2022/05/04 11:46:18;;;;;;;;;;;;;;;19.44;47.89;97839.03;4971837;28;20008;-57
2022/05/04 11:48:47;;;;;;;;;;;;;;;19.58;47.84;97840.03;4973291;28;19930;-57
2022/05/04 11:51:17;;;;;;;;;;;;;;;19.54;46.56;97832.88;4978409;28;19933;-56
2022/05/04 11:53:45;;;;;;;;;;;;;;;19.58;47.78;97833.72;4976171;28;19926;-56
2022/05/04 11:56:13;;;;;;;;;;;;;;;19.05;48.00;97839.22;4983320;28;19988;-57
2022/05/04 11:58:44;;;;;;;;;;;;;;;19.00;49.16;97842.28;4984752;28;19926;-57
2022/05/04 12:01:13;;;;;;;;;;;;;;;19.15;49.82;97838.59;4979759;28;20008;-57
2022/05/04 12:03:41;;;;;;;;;;;;;;;19.30;49.29;97834.91;4974628;28;19936;-57
2022/05/04 12:06:12;;;;;;;;;;;;;;;19.35;49.11;97831.84;4975719;28;20032;-56
2022/05/04 12:09:04;;;;;;;;;;;;;;;19.30;49.62;97826.63;4978950;28;19953;-57
2022/05/04 12:11:34;;;;;;;;;;;;;;;19.51;48.64;97822.63;4974880;28;19933;-58
2022/05/04 12:14:03;;;;;;;;;;;;;;;19.49;48.33;97822.16;4975821;28;19976;-56
2022/05/04 12:16:31;;;;;;;;;;;;;;;19.38;48.31;97822.03;4976881;28;20342;-57
2022/05/04 12:19:01;;;;;;;;;;;;;;;19.37;49.26;97818.47;4975652;28;19930;-55
2022/05/04 12:21:28;;;;;;;;;;;;;;;19.51;49.02;97825.38;4976864;28;19926;-57
2022/05/04 12:23:59;;;;;;;;;;;;;;;19.48;48.73;97823.34;4973577;28;19934;-57
2022/05/04 12:26:28;;;;;;;;;;;;;;;19.50;49.29;97832.06;4981604;28;19926;-54
2022/05/04 12:34:31;;;;;;;;;;;;;;;19.04;47.98;97849.44;4973831;28;19933;-57
2022/05/04 12:37:00;;;;;;;;;;;;;;;19.10;48.05;97853.47;4975327;28;19934;-57
2022/05/04 12:39:28;;;;;;;;;;;;;;;19.03;47.97;97855.31;4979081;28;20039;-57
2022/05/04 12:41:57;;;;;;;;;;;;;;;19.20;48.15;97867.78;4976479;28;19932;-60
2022/05/04 12:44:27;;;;;;;;;;;;;;;18.91;46.41;97872.00;4979648;28;19926;-57
2022/05/04 12:46:57;;;;;;;;;;;;;;;18.81;46.47;97888.00;4979138;28;19988;-57
2022/05/04 12:49:25;;;;;;;;;;;;;;;18.61;46.99;97885.63;4973430;28;20286;-57
2022/05/04 12:51:54;;;;;;;;;;;;;;;18.65;48.87;97898.28;4971637;28;19943;-56
2022/05/04 12:54:21;;;;;;;;;;;;;;;18.56;48.38;97901.25;4977177;28;19934;-57
2022/05/04 12:56:50;;;;;;;;;;;;;;;18.65;49.51;97917.53;4978424;28;20334;-57
2022/05/04 12:59:19;;;;;;;;;;;;;;;18.43;51.10;97924.59;4976207;28;19934;-57
2022/05/04 13:01:48;;;;;;;;;;;;;;;17.87;54.90;97940.66;4975337;28;19926;-56
2022/05/04 13:04:20;;;;;;;;;;;;;;;17.54;57.45;97944.59;4972657;28;19930;-57
2022/05/04 13:06:48;;;;;;;;;;;;;;;17.09;58.12;97923.06;4981058;28;20325;-59
2022/05/04 13:09:16;;;;;;;;;;;;;;;17.20;60.61;97915.88;4974230;28;19929;-56
2022/05/04 13:11:44;;;;;;;;;;;;;;;17.26;59.35;97920.00;4972538;28;20405;-57
2022/05/04 13:14:13;;;;;;;;;;;;;;;17.27;59.80;97918.84;4979155;28;20334;-57
2022/05/04 13:16:41;;;;;;;;;;;;;;;17.36;59.87;97915.88;4977263;28;19926;-57
2022/05/04 13:19:12;;;;;;;;;;;;;;;17.14;56.73;97912.63;4974975;28;19926;-57
2022/05/04 13:22:05;;;;;;;;;;;;;;;17.18;58.28;97912.72;4975413;28;20400;-57
2022/05/04 13:24:33;;;;;;;;;;;;;;;16.83;58.26;97909.84;4974765;28;20405;-57
2022/05/04 13:27:01;;;;;;;;;;;;;;;16.82;59.45;97909.06;4973137;28;19966;-56
2022/05/04 13:29:29;;;;;;;;;;;;;;;16.80;59.01;97914.09;4974202;28;19930;-59
2022/05/04 13:32:00;;;;;;;;;;;;;;;16.72;59.62;97909.56;4973242;28;19996;-56
2022/05/04 13:34:29;;;;;;;;;;;;;;;16.92;60.42;97899.50;4974394;28;19930;-57
2022/05/04 13:36:57;;;;;;;;;;;;;;;17.00;60.45;97899.34;4982879;28;19938;-57
2022/05/04 13:39:25;;;;;;;;;;;;;;;17.09;60.72;97906.59;4975052;28;19936;-56
2022/05/04 13:41:53;;;;;;;;;;;;;;;17.14;60.61;97909.88;4975014;28;19926;-56
2022/05/04 13:44:21;;;;;;;;;;;;;;;17.25;61.09;97908.19;4975174;28;19926;-55
2022/05/04 13:46:49;;;;;;;;;;;;;;;17.20;59.89;97902.97;4973882;28;19925;-57
2022/05/04 13:49:17;;;;;;;;;;;;;;;17.27;59.38;97897.66;4969366;28;19926;-57
2022/05/04 13:54:32;;;;;;;;;;;;;;;17.46;60.30;97896.91;4978266;28;19973;-55
2022/05/04 13:57:00;;;;;;;;;;;;;;;17.57;60.68;97896.38;4974572;28;20413;-54
2022/05/04 13:59:28;;;;;;;;;;;;;;;17.49;60.14;97898.16;4975885;28;19927;-57
2022/05/04 14:02:02;;;;;;;;;;;;;;;17.52;59.47;97897.44;4975324;28;19933;-55
2022/05/04 14:04:30;;;;;;;;;;;;;;;17.50;59.84;97894.25;4977338;28;19929;-57